sensor_id;sensor_type;location;lat;lon;timestamp;temperature;humidity
40848;DHT22;26570;50.962;5.340;2023-02-15T01:03:11;1.30;99.90
40848;DHT22;26570;50.962;5.340;2023-02-15T01:06:03;1.20;99.90
40848;DHT22;26570;50.962;5.340;2023-02-15T01:08:50;1.20;99.90
40848;DHT22;26570;50.962;5.340;2023-02-15T01:11:36;1.10;99.90
40848;DHT22;26570;50.962;5.340;2023-02-15T01:14:44;1.00;99.90
40848;DHT22;26570;50.962;5.340;2023-02-15T01:17:31;1.00;99.90
40848;DHT22;26570;50.962;5.340;2023-02-15T01:20:18;2.20;99.90
40848;DHT22;26570;50.962;5.340;2023-02-15T01:23:04;0.80;99.90
40848;DHT22;26570;50.962;5.340;2023-02-15T01:25:50;0.80;99.90
40848;DHT22;26570;50.962;5.340;2023-02-15T01:28:37;0.90;99.90
40848;DHT22;26570;50.962;5.340;2023-02-15T01:31:23;0.90;99.90
40848;DHT22;26570;50.962;5.340;2023-02-15T01:34:08;0.90;99.90
40848;DHT22;26570;50.962;5.340;2023-02-15T01:36:54;0.80;99.90
40848;DHT22;26570;50.962;5.340;2023-02-15T01:39:40;0.90;99.90
40848;DHT22;26570;50.962;5.340;2023-02-15T01:42:26;0.90;99.90
40848;DHT22;26570;50.962;5.340;2023-02-15T01:45:23;1.00;99.90
40848;DHT22;26570;50.962;5.340;2023-02-15T01:48:22;0.90;99.90
40848;DHT22;26570;50.962;5.340;2023-02-15T01:51:15;0.80;99.90
40848;DHT22;26570;50.962;5.340;2023-02-15T01:54:25;0.90;99.90
40848;DHT22;26570;50.962;5.340;2023-02-15T01:57:17;0.80;99.90
40848;DHT22;26570;50.962;5.340;2023-02-15T02:00:04;0.70;99.90
40848;DHT22;26570;50.962;5.340;2023-02-15T02:02:54;0.60;99.90
40848;DHT22;26570;50.962;5.340;2023-02-15T02:05:41;0.50;99.90
40848;DHT22;26570;50.962;5.340;2023-02-15T02:08:26;0.50;99.90
40848;DHT22;26570;50.962;5.340;2023-02-15T02:11:14;0.40;99.90
40848;DHT22;26570;50.962;5.340;2023-02-15T02:14:02;0.50;99.90
40848;DHT22;26570;50.962;5.340;2023-02-15T02:29:59;0.40;99.90
40848;DHT22;26570;50.962;5.340;2023-02-15T02:45:30;0.20;99.90
40848;DHT22;26570;50.962;5.340;2023-02-15T02:48:24;0.10;99.90
40848;DHT22;26570;50.962;5.340;2023-02-15T02:51:14;0.10;99.90
40848;DHT22;26570;50.962;5.340;2023-02-15T02:54:06;0.30;99.90
40848;DHT22;26570;50.962;5.340;2023-02-15T02:56:53;0.30;99.90
40848;DHT22;26570;50.962;5.340;2023-02-15T03:00:05;0.20;99.90
40848;DHT22;26570;50.962;5.340;2023-02-15T03:02:58;-0.50;99.90
40848;DHT22;26570;50.962;5.340;2023-02-15T03:05:57;0.10;99.90
40848;DHT22;26570;50.962;5.340;2023-02-15T03:08:56;0.10;99.90
40848;DHT22;26570;50.962;5.340;2023-02-15T03:11:44;0.20;99.90
40848;DHT22;26570;50.962;5.340;2023-02-15T03:14:30;0.20;99.90
40848;DHT22;26570;50.962;5.340;2023-02-15T03:17:17;0.20;99.90
40848;DHT22;26570;50.962;5.340;2023-02-15T03:20:18;0.20;99.90
40848;DHT22;26570;50.962;5.340;2023-02-15T03:23:10;0.20;99.90
40848;DHT22;26570;50.962;5.340;2023-02-15T03:26:00;0.10;99.90
40848;DHT22;26570;50.962;5.340;2023-02-15T03:28:48;0.10;99.90
40848;DHT22;26570;50.962;5.340;2023-02-15T03:31:40;0.10;99.90
40848;DHT22;26570;50.962;5.340;2023-02-15T03:34:26;0.20;99.90
40848;DHT22;26570;50.962;5.340;2023-02-15T03:37:47;-1.10;99.90
40848;DHT22;26570;50.962;5.340;2023-02-15T03:40:44;0.10;99.90
40848;DHT22;26570;50.962;5.340;2023-02-15T03:43:57;0.00;99.90
40848;DHT22;26570;50.962;5.340;2023-02-15T03:47:08;0.00;99.90
40848;DHT22;26570;50.962;5.340;2023-02-15T03:50:22;-0.10;99.90
40848;DHT22;26570;50.962;5.340;2023-02-15T03:53:27;0.10;99.90
40848;DHT22;26570;50.962;5.340;2023-02-15T03:56:14;0.00;99.90
40848;DHT22;26570;50.962;5.340;2023-02-15T03:58:59;0.00;99.90
40848;DHT22;26570;50.962;5.340;2023-02-15T04:02:20;0.10;99.90
40848;DHT22;26570;50.962;5.340;2023-02-15T04:05:08;0.10;99.90
40848;DHT22;26570;50.962;5.340;2023-02-15T04:07:54;0.20;99.90
40848;DHT22;26570;50.962;5.340;2023-02-15T04:10:40;0.00;99.90
40848;DHT22;26570;50.962;5.340;2023-02-15T04:13:37;-0.10;99.90
40848;DHT22;26570;50.962;5.340;2023-02-15T04:16:46;-0.10;99.90
40848;DHT22;26570;50.962;5.340;2023-02-15T04:19:32;-0.20;99.90
40848;DHT22;26570;50.962;5.340;2023-02-15T04:22:36;-0.30;99.90
40848;DHT22;26570;50.962;5.340;2023-02-15T04:25:40;-0.30;99.90
40848;DHT22;26570;50.962;5.340;2023-02-15T04:28:49;0.40;99.90
40848;DHT22;26570;50.962;5.340;2023-02-15T04:31:35;-0.20;99.90
40848;DHT22;26570;50.962;5.340;2023-02-15T04:34:20;-0.30;99.90
40848;DHT22;26570;50.962;5.340;2023-02-15T04:37:06;-0.20;99.90
40848;DHT22;26570;50.962;5.340;2023-02-15T04:39:52;-0.30;99.90
40848;DHT22;26570;50.962;5.340;2023-02-15T04:42:38;-0.40;99.90
40848;DHT22;26570;50.962;5.340;2023-02-15T04:45:24;-0.40;99.90
40848;DHT22;26570;50.962;5.340;2023-02-15T04:48:10;-0.30;99.90
40848;DHT22;26570;50.962;5.340;2023-02-15T04:50:56;-0.20;99.90
40848;DHT22;26570;50.962;5.340;2023-02-15T04:53:42;-0.20;99.90
40848;DHT22;26570;50.962;5.340;2023-02-15T04:56:27;-0.30;99.90
40848;DHT22;26570;50.962;5.340;2023-02-15T04:59:15;-0.20;99.90
40848;DHT22;26570;50.962;5.340;2023-02-15T05:02:00;-0.10;99.90
40848;DHT22;26570;50.962;5.340;2023-02-15T05:04:46;-0.30;99.90
40848;DHT22;26570;50.962;5.340;2023-02-15T05:07:33;-0.30;99.90
40848;DHT22;26570;50.962;5.340;2023-02-15T05:10:22;-0.20;99.90
40848;DHT22;26570;50.962;5.340;2023-02-15T05:13:07;-0.20;99.90
40848;DHT22;26570;50.962;5.340;2023-02-15T05:15:53;-0.30;99.90
40848;DHT22;26570;50.962;5.340;2023-02-15T05:18:43;1.10;99.90
40848;DHT22;26570;50.962;5.340;2023-02-15T05:21:28;-0.20;99.90
40848;DHT22;26570;50.962;5.340;2023-02-15T05:24:14;-0.30;99.90
40848;DHT22;26570;50.962;5.340;2023-02-15T05:27:18;-0.30;99.90
40848;DHT22;26570;50.962;5.340;2023-02-15T05:30:22;-0.40;99.90
40848;DHT22;26570;50.962;5.340;2023-02-15T05:33:08;-0.40;99.90
40848;DHT22;26570;50.962;5.340;2023-02-15T05:35:53;-0.60;99.90
40848;DHT22;26570;50.962;5.340;2023-02-15T05:38:39;-0.50;99.90
40848;DHT22;26570;50.962;5.340;2023-02-15T05:41:28;-0.50;99.90
40848;DHT22;26570;50.962;5.340;2023-02-15T05:44:39;-0.40;99.90
40848;DHT22;26570;50.962;5.340;2023-02-15T05:47:25;-0.60;99.90
40848;DHT22;26570;50.962;5.340;2023-02-15T05:50:11;-0.60;99.90
40848;DHT22;26570;50.962;5.340;2023-02-15T05:53:20;-0.60;99.90
40848;DHT22;26570;50.962;5.340;2023-02-15T05:56:07;-0.30;99.90
40848;DHT22;26570;50.962;5.340;2023-02-15T05:58:54;-0.60;99.90
40848;DHT22;26570;50.962;5.340;2023-02-15T06:01:39;-0.50;99.90
40848;DHT22;26570;50.962;5.340;2023-02-15T06:04:25;-0.50;99.90
40848;DHT22;26570;50.962;5.340;2023-02-15T06:07:11;-0.60;99.90
40848;DHT22;26570;50.962;5.340;2023-02-15T06:14:10;-0.60;99.90
40848;DHT22;26570;50.962;5.340;2023-02-15T06:16:57;-0.70;99.90
40848;DHT22;26570;50.962;5.340;2023-02-15T06:19:43;-0.70;99.90
40848;DHT22;26570;50.962;5.340;2023-02-15T06:22:29;-0.70;99.90
40848;DHT22;26570;50.962;5.340;2023-02-15T06:25:17;-0.10;99.90
40848;DHT22;26570;50.962;5.340;2023-02-15T06:28:06;-0.70;99.90
40848;DHT22;26570;50.962;5.340;2023-02-15T06:30:56;-0.60;99.90
40848;DHT22;26570;50.962;5.340;2023-02-15T06:33:43;-0.60;99.90
40848;DHT22;26570;50.962;5.340;2023-02-15T06:36:54;-0.70;99.90
40848;DHT22;26570;50.962;5.340;2023-02-15T06:40:02;-0.80;99.90
40848;DHT22;26570;50.962;5.340;2023-02-15T06:42:48;-0.80;99.90
40848;DHT22;26570;50.962;5.340;2023-02-15T06:45:33;-0.80;99.90
40848;DHT22;26570;50.962;5.340;2023-02-15T06:48:18;-0.80;99.90
40848;DHT22;26570;50.962;5.340;2023-02-15T06:51:02;-0.70;99.90
40848;DHT22;26570;50.962;5.340;2023-02-15T06:53:47;-0.70;99.90
40848;DHT22;26570;50.962;5.340;2023-02-15T06:56:33;-0.70;99.90
40848;DHT22;26570;50.962;5.340;2023-02-15T06:59:18;-0.70;99.90
40848;DHT22;26570;50.962;5.340;2023-02-15T07:02:05;-0.60;99.90
40848;DHT22;26570;50.962;5.340;2023-02-15T07:04:50;-0.70;99.90
40848;DHT22;26570;50.962;5.340;2023-02-15T07:07:36;-0.60;99.90
40848;DHT22;26570;50.962;5.340;2023-02-15T07:10:23;-0.50;99.90
40848;DHT22;26570;50.962;5.340;2023-02-15T07:13:08;-0.60;99.90
40848;DHT22;26570;50.962;5.340;2023-02-15T07:16:15;-0.50;99.90
40848;DHT22;26570;50.962;5.340;2023-02-15T07:19:00;-0.50;99.90
40848;DHT22;26570;50.962;5.340;2023-02-15T07:21:46;-0.40;99.90
40848;DHT22;26570;50.962;5.340;2023-02-15T07:24:31;-0.40;99.90
40848;DHT22;26570;50.962;5.340;2023-02-15T07:27:16;-0.20;99.90
40848;DHT22;26570;50.962;5.340;2023-02-15T07:30:05;-0.20;99.90
40848;DHT22;26570;50.962;5.340;2023-02-15T07:32:55;0.00;99.90
40848;DHT22;26570;50.962;5.340;2023-02-15T07:36:01;0.10;99.90
40848;DHT22;26570;50.962;5.340;2023-02-15T07:38:47;0.20;99.90
40848;DHT22;26570;50.962;5.340;2023-02-15T07:41:32;0.50;99.90
40848;DHT22;26570;50.962;5.340;2023-02-15T07:44:17;0.70;99.90
40848;DHT22;26570;50.962;5.340;2023-02-15T07:47:03;1.00;99.90
40848;DHT22;26570;50.962;5.340;2023-02-15T07:49:52;1.20;99.90
40848;DHT22;26570;50.962;5.340;2023-02-15T07:52:38;1.30;99.90
40848;DHT22;26570;50.962;5.340;2023-02-15T07:55:24;1.40;99.90
40848;DHT22;26570;50.962;5.340;2023-02-15T07:58:10;1.50;99.90
40848;DHT22;26570;50.962;5.340;2023-02-15T08:00:56;2.50;99.90
40848;DHT22;26570;50.962;5.340;2023-02-15T08:03:41;1.90;99.90
40848;DHT22;26570;50.962;5.340;2023-02-15T08:06:30;2.00;99.90
40848;DHT22;26570;50.962;5.340;2023-02-15T08:09:15;2.10;99.90
40848;DHT22;26570;50.962;5.340;2023-02-15T08:12:02;2.20;99.90
40848;DHT22;26570;50.962;5.340;2023-02-15T08:14:48;2.60;99.90
40848;DHT22;26570;50.962;5.340;2023-02-15T08:17:36;3.00;99.90
40848;DHT22;26570;50.962;5.340;2023-02-15T08:20:21;3.40;99.90
40848;DHT22;26570;50.962;5.340;2023-02-15T08:23:07;3.90;99.90
40848;DHT22;26570;50.962;5.340;2023-02-15T08:25:52;4.20;99.90
40848;DHT22;26570;50.962;5.340;2023-02-15T08:28:37;4.40;99.90
40848;DHT22;26570;50.962;5.340;2023-02-15T08:31:45;4.50;99.90
40848;DHT22;26570;50.962;5.340;2023-02-15T08:34:32;4.70;99.90
40848;DHT22;26570;50.962;5.340;2023-02-15T08:37:18;4.80;99.90
40848;DHT22;26570;50.962;5.340;2023-02-15T08:40:25;5.10;99.90
40848;DHT22;26570;50.962;5.340;2023-02-15T08:43:10;5.40;99.90
40848;DHT22;26570;50.962;5.340;2023-02-15T08:45:55;5.90;99.90
40848;DHT22;26570;50.962;5.340;2023-02-15T08:48:40;6.10;99.90
40848;DHT22;26570;50.962;5.340;2023-02-15T08:51:31;6.30;99.90
40848;DHT22;26570;50.962;5.340;2023-02-15T08:54:18;6.50;99.90
40848;DHT22;26570;50.962;5.340;2023-02-15T08:57:03;6.60;99.90
40848;DHT22;26570;50.962;5.340;2023-02-15T09:00:11;6.60;99.90
40848;DHT22;26570;50.962;5.340;2023-02-15T09:02:56;6.70;99.90
40848;DHT22;26570;50.962;5.340;2023-02-15T09:05:42;6.60;99.90
40848;DHT22;26570;50.962;5.340;2023-02-15T09:08:27;6.80;99.90
40848;DHT22;26570;50.962;5.340;2023-02-15T09:11:14;7.00;99.90
40848;DHT22;26570;50.962;5.340;2023-02-15T09:14:09;7.10;99.90
40848;DHT22;26570;50.962;5.340;2023-02-15T09:16:58;7.30;99.90
40848;DHT22;26570;50.962;5.340;2023-02-15T09:19:44;7.50;99.90
40848;DHT22;26570;50.962;5.340;2023-02-15T09:22:29;7.70;99.90
40848;DHT22;26570;50.962;5.340;2023-02-15T09:25:16;7.70;99.90
40848;DHT22;26570;50.962;5.340;2023-02-15T09:28:02;7.80;99.90
40848;DHT22;26570;50.962;5.340;2023-02-15T09:30:47;7.90;99.90
40848;DHT22;26570;50.962;5.340;2023-02-15T09:33:33;7.90;99.90
40848;DHT22;26570;50.962;5.340;2023-02-15T09:36:22;8.10;99.90
40848;DHT22;26570;50.962;5.340;2023-02-15T09:39:18;8.20;99.90
40848;DHT22;26570;50.962;5.340;2023-02-15T09:48:40;8.70;99.90
40848;DHT22;26570;50.962;5.340;2023-02-15T09:51:51;9.10;99.90
40848;DHT22;26570;50.962;5.340;2023-02-15T10:00:57;10.10;99.90
40848;DHT22;26570;50.962;5.340;2023-02-15T10:16:20;12.40;99.90
40848;DHT22;26570;50.962;5.340;2023-02-15T10:28:19;12.60;99.90
40848;DHT22;26570;50.962;5.340;2023-02-15T10:34:26;12.20;99.90
40848;DHT22;26570;50.962;5.340;2023-02-15T10:57:02;12.40;99.90
40848;DHT22;26570;50.962;5.340;2023-02-15T11:03:05;12.80;99.90
40848;DHT22;26570;50.962;5.340;2023-02-15T11:06:12;12.90;99.90
40848;DHT22;26570;50.962;5.340;2023-02-15T11:09:11;12.80;99.90
40848;DHT22;26570;50.962;5.340;2023-02-15T11:12:00;13.20;99.90
40848;DHT22;26570;50.962;5.340;2023-02-15T11:15:01;13.50;99.90
40848;DHT22;26570;50.962;5.340;2023-02-15T11:18:36;13.40;99.90
40848;DHT22;26570;50.962;5.340;2023-02-15T11:21:32;13.50;99.90
40848;DHT22;26570;50.962;5.340;2023-02-15T11:24:46;13.40;99.90
40848;DHT22;26570;50.962;5.340;2023-02-15T11:27:55;13.60;99.90
40848;DHT22;26570;50.962;5.340;2023-02-15T11:30:43;13.70;99.90
40848;DHT22;26570;50.962;5.340;2023-02-15T11:33:35;13.80;99.90
40848;DHT22;26570;50.962;5.340;2023-02-15T11:36:26;13.90;99.90
40848;DHT22;26570;50.962;5.340;2023-02-15T11:39:16;14.00;99.90
40848;DHT22;26570;50.962;5.340;2023-02-15T11:42:11;14.20;99.90
40848;DHT22;26570;50.962;5.340;2023-02-15T11:45:21;14.30;99.90
40848;DHT22;26570;50.962;5.340;2023-02-15T11:48:33;14.20;99.90
40848;DHT22;26570;50.962;5.340;2023-02-15T11:51:21;14.50;99.90
40848;DHT22;26570;50.962;5.340;2023-02-15T11:54:31;14.70;99.90
40848;DHT22;26570;50.962;5.340;2023-02-15T12:00:26;14.90;99.90
40848;DHT22;26570;50.962;5.340;2023-02-15T12:03:43;15.00;99.90
40848;DHT22;26570;50.962;5.340;2023-02-15T12:06:34;15.20;99.90
40848;DHT22;26570;50.962;5.340;2023-02-15T12:12:31;15.00;99.90
40848;DHT22;26570;50.962;5.340;2023-02-15T12:15:30;15.00;99.90
40848;DHT22;26570;50.962;5.340;2023-02-15T12:21:30;15.30;99.90
40848;DHT22;26570;50.962;5.340;2023-02-15T12:24:23;15.30;99.90
40848;DHT22;26570;50.962;5.340;2023-02-15T12:27:21;15.50;99.90
40848;DHT22;26570;50.962;5.340;2023-02-15T12:30:31;15.50;99.70
40848;DHT22;26570;50.962;5.340;2023-02-15T12:36:48;15.40;99.20
40848;DHT22;26570;50.962;5.340;2023-02-15T12:39:51;15.50;99.40
40848;DHT22;26570;50.962;5.340;2023-02-15T12:42:42;15.20;97.80
40848;DHT22;26570;50.962;5.340;2023-02-15T12:45:31;15.30;99.40
40848;DHT22;26570;50.962;5.340;2023-02-15T12:48:18;15.50;99.20
40848;DHT22;26570;50.962;5.340;2023-02-15T12:51:08;15.20;98.40
40848;DHT22;26570;50.962;5.340;2023-02-15T12:53:58;15.20;98.90
40848;DHT22;26570;50.962;5.340;2023-02-15T12:56:45;15.30;99.10
40848;DHT22;26570;50.962;5.340;2023-02-15T12:59:58;15.20;98.90
40848;DHT22;26570;50.962;5.340;2023-02-15T13:02:48;15.10;99.10
40848;DHT22;26570;50.962;5.340;2023-02-15T13:05:40;15.10;99.30
40848;DHT22;26570;50.962;5.340;2023-02-15T13:08:51;15.00;99.40
40848;DHT22;26570;50.962;5.340;2023-02-15T13:11:38;15.10;99.90
40848;DHT22;26570;50.962;5.340;2023-02-15T13:14:33;15.20;99.80
40848;DHT22;26570;50.962;5.340;2023-02-15T13:17:26;15.30;99.90
40848;DHT22;26570;50.962;5.340;2023-02-15T13:20:19;15.30;99.90
40848;DHT22;26570;50.962;5.340;2023-02-15T13:23:26;15.50;99.90
40848;DHT22;26570;50.962;5.340;2023-02-15T13:26:17;15.50;99.90
40848;DHT22;26570;50.962;5.340;2023-02-15T13:29:11;15.60;98.70
40848;DHT22;26570;50.962;5.340;2023-02-15T13:32:19;15.70;98.50
40848;DHT22;26570;50.962;5.340;2023-02-15T13:35:15;15.40;98.50
40848;DHT22;26570;50.962;5.340;2023-02-15T13:38:16;15.30;99.10
40848;DHT22;26570;50.962;5.340;2023-02-15T13:41:17;15.20;99.40
40848;DHT22;26570;50.962;5.340;2023-02-15T13:44:21;15.00;99.80
40848;DHT22;26570;50.962;5.340;2023-02-15T13:47:23;15.10;99.90
40848;DHT22;26570;50.962;5.340;2023-02-15T13:53:38;15.30;99.90
40848;DHT22;26570;50.962;5.340;2023-02-15T14:05:24;15.60;99.90
40848;DHT22;26570;50.962;5.340;2023-02-15T14:14:59;15.20;99.90
40848;DHT22;26570;50.962;5.340;2023-02-15T14:18:39;15.30;99.90
40848;DHT22;26570;50.962;5.340;2023-02-15T14:21:30;15.50;99.90
40848;DHT22;26570;50.962;5.340;2023-02-15T14:24:40;15.60;99.80
40848;DHT22;26570;50.962;5.340;2023-02-15T14:27:45;15.50;99.90
40848;DHT22;26570;50.962;5.340;2023-02-15T14:30:34;15.30;99.90
40848;DHT22;26570;50.962;5.340;2023-02-15T14:33:55;15.20;99.90
40848;DHT22;26570;50.962;5.340;2023-02-15T14:36:40;15.10;99.90
40848;DHT22;26570;50.962;5.340;2023-02-15T14:39:46;15.10;99.90
40848;DHT22;26570;50.962;5.340;2023-02-15T14:43:11;15.10;99.90
40848;DHT22;26570;50.962;5.340;2023-02-15T14:46:09;15.10;99.90
40848;DHT22;26570;50.962;5.340;2023-02-15T14:48:59;15.20;99.90
40848;DHT22;26570;50.962;5.340;2023-02-15T14:57:29;14.70;99.90
40848;DHT22;26570;50.962;5.340;2023-02-15T15:00:37;14.70;99.90
40848;DHT22;26570;50.962;5.340;2023-02-15T15:03:25;14.70;99.90
40848;DHT22;26570;50.962;5.340;2023-02-15T15:06:39;14.70;99.90
40848;DHT22;26570;50.962;5.340;2023-02-15T15:09:32;14.70;99.90
40848;DHT22;26570;50.962;5.340;2023-02-15T15:18:46;14.50;99.90
40848;DHT22;26570;50.962;5.340;2023-02-15T15:40:22;14.50;99.90
40848;DHT22;26570;50.962;5.340;2023-02-15T15:43:34;14.40;99.90
40848;DHT22;26570;50.962;5.340;2023-02-15T15:49:58;14.30;99.90
40848;DHT22;26570;50.962;5.340;2023-02-15T15:52:50;14.20;99.90
40848;DHT22;26570;50.962;5.340;2023-02-15T15:55:36;14.20;99.90
40848;DHT22;26570;50.962;5.340;2023-02-15T15:58:24;14.10;99.90
40848;DHT22;26570;50.962;5.340;2023-02-15T16:01:11;14.00;99.90
40848;DHT22;26570;50.962;5.340;2023-02-15T16:04:00;14.00;99.90
40848;DHT22;26570;50.962;5.340;2023-02-15T16:06:45;13.90;99.90
40848;DHT22;26570;50.962;5.340;2023-02-15T16:09:30;13.90;99.90
40848;DHT22;26570;50.962;5.340;2023-02-15T16:12:17;13.80;99.90
40848;DHT22;26570;50.962;5.340;2023-02-15T16:16:03;13.70;99.90
40848;DHT22;26570;50.962;5.340;2023-02-15T16:18:25;13.60;99.90
40848;DHT22;26570;50.962;5.340;2023-02-15T16:21:20;13.50;99.90
40848;DHT22;26570;50.962;5.340;2023-02-15T16:24:25;13.50;99.90
40848;DHT22;26570;50.962;5.340;2023-02-15T16:27:27;13.30;99.90
40848;DHT22;26570;50.962;5.340;2023-02-15T16:30:39;13.40;99.90
40848;DHT22;26570;50.962;5.340;2023-02-15T16:33:36;13.10;99.90
40848;DHT22;26570;50.962;5.340;2023-02-15T16:36:27;13.00;99.90
40848;DHT22;26570;50.962;5.340;2023-02-15T16:39:22;12.80;99.90
40848;DHT22;26570;50.962;5.340;2023-02-15T16:42:08;12.70;99.90
40848;DHT22;26570;50.962;5.340;2023-02-15T16:45:03;12.60;99.90
40848;DHT22;26570;50.962;5.340;2023-02-15T16:47:53;12.50;99.90
40848;DHT22;26570;50.962;5.340;2023-02-15T16:50:40;12.40;99.90
40848;DHT22;26570;50.962;5.340;2023-02-15T16:53:31;12.30;99.90
40848;DHT22;26570;50.962;5.340;2023-02-15T16:56:29;12.10;99.90
40848;DHT22;26570;50.962;5.340;2023-02-15T16:59:39;12.00;99.90
40848;DHT22;26570;50.962;5.340;2023-02-15T17:02:29;11.80;99.90
40848;DHT22;26570;50.962;5.340;2023-02-15T17:05:17;11.70;99.90
40848;DHT22;26570;50.962;5.340;2023-02-15T17:08:19;11.40;99.90
40848;DHT22;26570;50.962;5.340;2023-02-15T17:11:34;11.50;99.90
40848;DHT22;26570;50.962;5.340;2023-02-15T17:14:22;11.30;99.90
40848;DHT22;26570;50.962;5.340;2023-02-15T17:17:14;11.10;99.90
40848;DHT22;26570;50.962;5.340;2023-02-15T17:20:00;11.00;99.90
40848;DHT22;26570;50.962;5.340;2023-02-15T17:22:46;10.80;99.90
40848;DHT22;26570;50.962;5.340;2023-02-15T17:25:39;10.60;99.90
40848;DHT22;26570;50.962;5.340;2023-02-15T17:28:33;10.50;99.90
40848;DHT22;26570;50.962;5.340;2023-02-15T17:31:33;10.40;99.90
40848;DHT22;26570;50.962;5.340;2023-02-15T17:40:47;10.00;99.90
40848;DHT22;26570;50.962;5.340;2023-02-15T17:43:35;9.80;99.90
40848;DHT22;26570;50.962;5.340;2023-02-15T17:46:25;9.70;99.90
40848;DHT22;26570;50.962;5.340;2023-02-15T17:49:26;9.50;99.90
40848;DHT22;26570;50.962;5.340;2023-02-15T17:52:21;9.50;99.90
40848;DHT22;26570;50.962;5.340;2023-02-15T17:55:18;9.40;99.90
40848;DHT22;26570;50.962;5.340;2023-02-15T17:58:20;9.40;99.90
40848;DHT22;26570;50.962;5.340;2023-02-15T18:01:28;9.30;99.90
40848;DHT22;26570;50.962;5.340;2023-02-15T18:04:54;9.10;99.90
40848;DHT22;26570;50.962;5.340;2023-02-15T18:08:25;8.90;99.90
40848;DHT22;26570;50.962;5.340;2023-02-15T18:11:29;8.80;99.90
40848;DHT22;26570;50.962;5.340;2023-02-15T18:14:21;8.60;99.90
40848;DHT22;26570;50.962;5.340;2023-02-15T18:17:13;8.80;99.90
40848;DHT22;26570;50.962;5.340;2023-02-15T18:20:05;8.70;99.90
40848;DHT22;26570;50.962;5.340;2023-02-15T18:22:51;8.70;99.90
40848;DHT22;26570;50.962;5.340;2023-02-15T18:25:37;8.70;99.90
40848;DHT22;26570;50.962;5.340;2023-02-15T18:28:23;8.80;99.90
40848;DHT22;26570;50.962;5.340;2023-02-15T18:31:09;8.60;99.90
40848;DHT22;26570;50.962;5.340;2023-02-15T18:34:40;8.60;99.90
40848;DHT22;26570;50.962;5.340;2023-02-15T18:37:50;8.50;99.90
40848;DHT22;26570;50.962;5.340;2023-02-15T18:40:36;8.50;99.90
40848;DHT22;26570;50.962;5.340;2023-02-15T18:43:21;8.40;99.90
40848;DHT22;26570;50.962;5.340;2023-02-15T18:46:09;8.60;99.90
40848;DHT22;26570;50.962;5.340;2023-02-15T18:48:54;8.60;99.90
40848;DHT22;26570;50.962;5.340;2023-02-15T18:52:16;8.60;99.90
40848;DHT22;26570;50.962;5.340;2023-02-15T18:55:16;8.50;99.90
40848;DHT22;26570;50.962;5.340;2023-02-15T18:58:08;8.50;99.90
40848;DHT22;26570;50.962;5.340;2023-02-15T19:01:17;8.50;99.90
40848;DHT22;26570;50.962;5.340;2023-02-15T19:04:29;8.50;99.90
40848;DHT22;26570;50.962;5.340;2023-02-15T19:07:24;8.50;99.90
40848;DHT22;26570;50.962;5.340;2023-02-15T19:10:18;8.40;99.90
40848;DHT22;26570;50.962;5.340;2023-02-15T19:13:26;8.40;99.90
40848;DHT22;26570;50.962;5.340;2023-02-15T19:16:34;8.20;99.90
40848;DHT22;26570;50.962;5.340;2023-02-15T19:19:43;8.30;99.90
40848;DHT22;26570;50.962;5.340;2023-02-15T19:22:30;8.30;99.90
40848;DHT22;26570;50.962;5.340;2023-02-15T19:25:24;8.20;99.90
40848;DHT22;26570;50.962;5.340;2023-02-15T19:28:21;8.10;99.90
40848;DHT22;26570;50.962;5.340;2023-02-15T19:31:11;8.00;99.90
40848;DHT22;26570;50.962;5.340;2023-02-15T19:34:07;7.90;99.90
40848;DHT22;26570;50.962;5.340;2023-02-15T19:36:53;7.90;99.90
40848;DHT22;26570;50.962;5.340;2023-02-15T19:39:42;7.80;99.90
40848;DHT22;26570;50.962;5.340;2023-02-15T19:42:33;7.70;99.90
40848;DHT22;26570;50.962;5.340;2023-02-15T19:45:30;7.60;99.90
40848;DHT22;26570;50.962;5.340;2023-02-15T19:48:39;7.50;99.90
40848;DHT22;26570;50.962;5.340;2023-02-15T19:51:24;7.60;99.90
40848;DHT22;26570;50.962;5.340;2023-02-15T19:54:28;7.50;99.90
40848;DHT22;26570;50.962;5.340;2023-02-15T19:57:15;7.30;99.90
40848;DHT22;26570;50.962;5.340;2023-02-15T20:00:31;7.10;99.90
40848;DHT22;26570;50.962;5.340;2023-02-15T20:03:17;6.90;99.90
40848;DHT22;26570;50.962;5.340;2023-02-15T20:06:02;6.90;99.90
40848;DHT22;26570;50.962;5.340;2023-02-15T20:08:50;6.80;99.90
40848;DHT22;26570;50.962;5.340;2023-02-15T20:11:57;6.80;99.90
40848;DHT22;26570;50.962;5.340;2023-02-15T20:18:14;6.60;99.90
40848;DHT22;26570;50.962;5.340;2023-02-15T20:21:03;6.50;99.90
40848;DHT22;26570;50.962;5.340;2023-02-15T20:24:16;6.40;99.90
40848;DHT22;26570;50.962;5.340;2023-02-15T20:27:09;6.40;99.90
40848;DHT22;26570;50.962;5.340;2023-02-15T20:30:02;6.30;99.90
40848;DHT22;26570;50.962;5.340;2023-02-15T20:32:48;6.30;99.90
40848;DHT22;26570;50.962;5.340;2023-02-15T20:35:35;6.30;99.90
40848;DHT22;26570;50.962;5.340;2023-02-15T20:38:47;6.40;99.90
40848;DHT22;26570;50.962;5.340;2023-02-15T20:41:54;6.40;99.90
40848;DHT22;26570;50.962;5.340;2023-02-15T20:44:42;6.30;99.90
40848;DHT22;26570;50.962;5.340;2023-02-15T20:47:51;6.40;99.90
40848;DHT22;26570;50.962;5.340;2023-02-15T20:50:37;6.40;99.90
40848;DHT22;26570;50.962;5.340;2023-02-15T20:53:45;6.30;99.90
40848;DHT22;26570;50.962;5.340;2023-02-15T20:56:31;6.30;99.90
40848;DHT22;26570;50.962;5.340;2023-02-15T20:59:27;6.30;99.90
40848;DHT22;26570;50.962;5.340;2023-02-15T21:02:36;6.30;99.90
40848;DHT22;26570;50.962;5.340;2023-02-15T21:05:24;6.20;99.90
40848;DHT22;26570;50.962;5.340;2023-02-15T21:08:18;6.20;99.90
40848;DHT22;26570;50.962;5.340;2023-02-15T21:11:24;6.10;99.90
40848;DHT22;26570;50.962;5.340;2023-02-15T21:14:20;6.00;99.90
40848;DHT22;26570;50.962;5.340;2023-02-15T21:17:28;5.90;99.90
40848;DHT22;26570;50.962;5.340;2023-02-15T21:20:16;5.80;99.90
40848;DHT22;26570;50.962;5.340;2023-02-15T21:23:05;5.70;99.90
40848;DHT22;26570;50.962;5.340;2023-02-15T21:25:54;5.70;99.90
40848;DHT22;26570;50.962;5.340;2023-02-15T21:29:02;5.70;99.90
40848;DHT22;26570;50.962;5.340;2023-02-15T21:31:47;5.70;99.90
40848;DHT22;26570;50.962;5.340;2023-02-15T21:34:34;5.80;99.90
40848;DHT22;26570;50.962;5.340;2023-02-15T21:37:43;5.80;99.90
40848;DHT22;26570;50.962;5.340;2023-02-15T21:40:31;5.70;99.90
40848;DHT22;26570;50.962;5.340;2023-02-15T21:43:22;5.80;99.90
40848;DHT22;26570;50.962;5.340;2023-02-15T21:46:26;5.80;99.90
40848;DHT22;26570;50.962;5.340;2023-02-15T21:49:29;6.00;99.90
40848;DHT22;26570;50.962;5.340;2023-02-15T21:52:18;6.00;99.90
40848;DHT22;26570;50.962;5.340;2023-02-15T21:55:13;6.00;99.90
40848;DHT22;26570;50.962;5.340;2023-02-15T21:57:59;6.00;99.90
40848;DHT22;26570;50.962;5.340;2023-02-15T22:00:45;5.80;99.90
40848;DHT22;26570;50.962;5.340;2023-02-15T22:03:34;5.90;99.90
40848;DHT22;26570;50.962;5.340;2023-02-15T22:06:20;5.70;99.90
40848;DHT22;26570;50.962;5.340;2023-02-15T22:09:17;5.70;99.90
40848;DHT22;26570;50.962;5.340;2023-02-15T22:12:13;5.70;99.90
40848;DHT22;26570;50.962;5.340;2023-02-15T22:15:04;5.60;99.90